CheckWX is a tool to help pilots better visualize weather data.  It is not intended as a substitute for an official pre-flight weather briefing.

03:24:07 UTC

KFZY METAR
Oswego County Airport
Fulton, New York, USA
Current

30 mins ago

KFZY 270254Z AUTO 28004KT 10SM CLR 12/07 A2996 RMK AO2 SLP143 T01220072 53006
Observed
May-27 @ 02:54 UTC
Wind
  • 280° at 4 KTS
Visibility
10 SM
Flight Rules
VFR
Cloud Levels
  • Clear skies
Temperature
12°C / 54°F
Dewpoint
C / 45°F
Humidity
72%
Altimeter
29.96" Hg
Pressure
1014.52 hPa
Previous

2 hours ago

KFZY 270154Z AUTO 29004KT 10SM CLR 13/08 A2995 RMK AO2 SLP140 T01330078
Observed
May-27 @ 01:54 UTC
Wind
  • 290° at 4 KTS
Visibility
10 SM
Flight Rules
VFR
Cloud Levels
  • Clear skies
Temperature
13°C / 55°F
Dewpoint
C / 46°F
Humidity
72%
Altimeter
29.95" Hg
Pressure
1014.22 hPa
Previous

3 hours ago

KFZY 270054Z AUTO 29006KT 10SM CLR 15/08 A2994 RMK AO2 SLP137 T01500078
Observed
May-27 @ 00:54 UTC
Wind
  • 290° at 6 KTS
Visibility
10 SM
Flight Rules
VFR
Cloud Levels
  • Clear skies
Temperature
15°C / 59°F
Dewpoint
C / 46°F
Humidity
63%
Altimeter
29.94" Hg
Pressure
1013.92 hPa